createdAt,value
2022-11-13T00:01:26.735Z,16.27
2022-11-13T00:04:12.727Z,16.26
2022-11-13T00:06:59.288Z,16.23
2022-11-13T00:09:45.329Z,16.18
2022-11-13T00:12:30.673Z,16.16
2022-11-13T00:15:16.675Z,16.13
2022-11-13T00:18:03.497Z,16.11
2022-11-13T00:20:49.008Z,16.09
2022-11-13T00:23:36.638Z,16.05
2022-11-13T00:26:27.557Z,16.05
2022-11-13T00:29:12.531Z,16.02
2022-11-13T00:31:57.777Z,16.02
2022-11-13T00:34:48.106Z,15.99
2022-11-13T00:37:34.162Z,15.97
2022-11-13T00:40:19.458Z,15.96
2022-11-13T00:43:04.692Z,15.89
2022-11-13T00:45:50.195Z,15.91
2022-11-13T00:48:36.422Z,15.86
2022-11-13T00:51:22.253Z,15.84
2022-11-13T00:54:07.972Z,15.84
2022-11-13T00:56:53.600Z,15.80
2022-11-13T00:59:39.864Z,15.81
2022-11-13T01:02:25.758Z,15.77
2022-11-13T01:05:11.677Z,15.80
2022-11-13T01:07:57.685Z,15.79
2022-11-13T01:10:53.202Z,15.83
2022-11-13T01:13:41.643Z,15.77
2022-11-13T01:16:28.606Z,15.70
2022-11-13T01:19:14.199Z,15.66
2022-11-13T01:21:59.339Z,15.70
2022-11-13T01:24:44.672Z,15.66
2022-11-13T01:27:29.887Z,15.67
2022-11-13T01:30:15.076Z,15.69
2022-11-13T01:33:00.601Z,15.67
2022-11-13T01:35:45.951Z,15.67
2022-11-13T01:38:35.925Z,15.73
2022-11-13T01:41:25.985Z,15.66
2022-11-13T01:44:14.432Z,15.61
2022-11-13T01:46:59.921Z,15.59
2022-11-13T01:49:46.931Z,15.56
2022-11-13T01:52:36.839Z,15.62
2022-11-13T01:55:22.509Z,15.54
2022-11-13T01:58:10.360Z,15.54
2022-11-13T02:00:55.791Z,15.47
2022-11-13T02:03:41.009Z,15.48
2022-11-13T02:06:29.163Z,15.49
2022-11-13T02:09:17.885Z,15.50
2022-11-13T02:12:05.780Z,15.49
2022-11-13T02:14:54.316Z,15.48
2022-11-13T02:17:44.555Z,15.50
2022-11-13T02:20:40.705Z,15.45
2022-11-13T02:24:23.344Z,15.45
2022-11-13T02:27:38.014Z,15.48
2022-11-13T02:30:31.232Z,15.49
2022-11-13T02:33:32.936Z,15.41
2022-11-13T02:36:22.178Z,15.32
2022-11-13T02:39:11.172Z,15.39
2022-11-13T02:41:56.646Z,15.32
2022-11-13T02:44:41.848Z,15.33
2022-11-13T02:47:27.490Z,15.36
2022-11-13T02:50:13.616Z,15.33
2022-11-13T02:52:59.739Z,15.34
2022-11-13T02:55:44.978Z,15.33
2022-11-13T02:58:31.026Z,15.39
2022-11-13T03:01:16.906Z,15.31
2022-11-13T03:04:02.687Z,15.39
2022-11-13T03:06:47.817Z,15.27
2022-11-13T03:09:33.118Z,15.21
2022-11-13T03:12:18.260Z,15.33
2022-11-13T03:15:04.671Z,15.26
2022-11-13T03:17:50.050Z,15.33
2022-11-13T03:20:40.462Z,15.24
2022-11-13T03:23:25.957Z,15.21
2022-11-13T03:26:13.517Z,15.15
2022-11-13T03:28:58.800Z,15.11
2022-11-13T03:31:44.268Z,15.13
2022-11-13T03:34:29.616Z,15.13
2022-11-13T03:37:14.909Z,15.28
2022-11-13T03:39:59.987Z,15.16
2022-11-13T03:42:45.071Z,15.20
2022-11-13T03:45:30.387Z,15.09
2022-11-13T03:48:16.790Z,15.08
2022-11-13T03:51:02.736Z,15.13
2022-11-13T03:53:47.987Z,15.07
2022-11-13T03:56:33.292Z,15.07
2022-11-13T03:59:18.967Z,15.05
2022-11-13T04:02:04.253Z,15.13
2022-11-13T04:04:49.605Z,15.15
2022-11-13T04:07:34.909Z,15.02
2022-11-13T04:10:20.152Z,15.00
2022-11-13T04:13:05.453Z,15.05
2022-11-13T04:15:51.053Z,15.06
2022-11-13T04:18:36.355Z,15.04
2022-11-13T04:21:21.855Z,14.97
2022-11-13T04:24:07.025Z,15.08
2022-11-13T04:26:52.287Z,15.01
2022-11-13T04:29:39.022Z,15.02
2022-11-13T04:32:24.853Z,14.91
2022-11-13T04:35:11.242Z,14.92
2022-11-13T04:37:56.376Z,15.13
2022-11-13T04:40:42.447Z,15.07
2022-11-13T04:43:28.062Z,15.00
2022-11-13T04:46:13.198Z,15.00
2022-11-13T04:48:58.659Z,14.94
2022-11-13T04:51:43.690Z,15.08
2022-11-13T04:54:29.210Z,14.88
2022-11-13T04:57:14.251Z,14.81
2022-11-13T04:59:59.515Z,14.97
2022-11-13T05:02:44.933Z,14.86
2022-11-13T05:05:30.169Z,14.91
2022-11-13T05:08:15.361Z,14.91
2022-11-13T05:11:01.343Z,14.77
2022-11-13T05:13:46.680Z,14.81
2022-11-13T05:16:32.310Z,14.80
2022-11-13T05:19:17.657Z,14.72
2022-11-13T05:22:03.990Z,14.72
2022-11-13T05:24:49.165Z,14.78
2022-11-13T05:27:34.719Z,14.84
2022-11-13T05:30:20.426Z,14.80
2022-11-13T05:33:05.724Z,14.68
2022-11-13T05:35:50.722Z,14.72
2022-11-13T05:38:36.636Z,14.71
2022-11-13T05:41:22.851Z,14.68
2022-11-13T05:44:07.979Z,14.71
2022-11-13T05:46:53.232Z,14.66
2022-11-13T05:49:38.369Z,14.70
2022-11-13T05:52:23.482Z,14.63
2022-11-13T05:55:09.377Z,14.60
2022-11-13T05:57:54.907Z,14.54
2022-11-13T06:00:40.178Z,14.66
2022-11-13T06:03:25.360Z,14.69
2022-11-13T06:06:14.249Z,14.73
2022-11-13T06:09:01.526Z,14.62
2022-11-13T06:11:46.732Z,14.58
2022-11-13T06:14:31.922Z,14.61
2022-11-13T06:17:17.204Z,14.50
2022-11-13T06:20:02.215Z,14.57
2022-11-13T06:22:47.568Z,14.50
2022-11-13T06:25:32.645Z,14.54
2022-11-13T06:28:18.598Z,14.42
2022-11-13T06:31:09.878Z,14.44
2022-11-13T06:33:55.832Z,14.53
2022-11-13T06:36:41.135Z,14.48
2022-11-13T06:39:26.350Z,14.50
2022-11-13T06:42:11.826Z,14.49
2022-11-13T06:44:56.969Z,14.42
2022-11-13T06:47:42.004Z,14.37
2022-11-13T06:50:27.628Z,14.49
2022-11-13T06:53:13.132Z,14.30
2022-11-13T06:55:59.586Z,14.26
2022-11-13T06:58:44.994Z,14.39
2022-11-13T07:01:30.044Z,14.33
2022-11-13T07:04:15.434Z,14.35
2022-11-13T07:07:01.021Z,14.37
2022-11-13T07:09:46.550Z,14.26
2022-11-13T07:12:31.907Z,14.20
2022-11-13T07:15:17.058Z,14.41
2022-11-13T07:18:03.119Z,14.26
2022-11-13T07:20:49.014Z,14.18
2022-11-13T07:23:37.129Z,14.29
2022-11-13T07:26:22.985Z,14.36
2022-11-13T07:29:08.357Z,14.33
2022-11-13T07:31:54.445Z,14.19
2022-11-13T07:34:39.707Z,14.23
2022-11-13T07:37:25.016Z,14.17
2022-11-13T07:40:11.313Z,14.11
2022-11-13T07:42:59.035Z,14.17
2022-11-13T07:45:44.506Z,14.20
2022-11-13T07:48:30.497Z,14.26
2022-11-13T07:51:16.024Z,14.33
2022-11-13T07:54:01.524Z,14.38
2022-11-13T07:56:47.380Z,14.49
2022-11-13T07:59:32.600Z,14.54
2022-11-13T08:02:20.168Z,14.57
2022-11-13T08:05:09.076Z,14.63
2022-11-13T08:07:54.257Z,14.65
2022-11-13T08:10:39.847Z,14.74
2022-11-13T08:13:24.948Z,14.82
2022-11-13T08:16:09.983Z,14.89
2022-11-13T08:18:55.259Z,14.85
2022-11-13T08:21:40.206Z,14.79
2022-11-13T08:24:25.581Z,14.81
2022-11-13T08:27:10.711Z,14.81
2022-11-13T08:29:56.323Z,14.78
2022-11-13T08:32:41.461Z,14.84
2022-11-13T08:35:29.362Z,14.71
2022-11-13T08:38:14.975Z,14.73
2022-11-13T08:41:07.218Z,14.76
2022-11-13T08:43:54.272Z,14.78
2022-11-13T08:46:40.062Z,14.80
2022-11-13T08:49:25.524Z,14.83
2022-11-13T08:52:10.651Z,14.89
2022-11-13T08:54:56.256Z,14.91
2022-11-13T08:57:41.680Z,14.87
2022-11-13T09:00:28.768Z,15.02
2022-11-13T09:03:14.321Z,15.13
2022-11-13T09:05:59.513Z,15.28
2022-11-13T09:08:44.750Z,15.38
2022-11-13T09:11:29.850Z,15.48
2022-11-13T09:14:15.398Z,15.51
2022-11-13T09:17:00.504Z,15.59
2022-11-13T09:19:45.662Z,15.48
2022-11-13T09:22:31.153Z,15.37
2022-11-13T09:25:16.552Z,15.41
2022-11-13T09:28:02.269Z,15.38
2022-11-13T09:30:50.811Z,15.46
2022-11-13T09:33:36.361Z,15.51
2022-11-13T09:36:21.606Z,15.51
2022-11-13T09:39:06.868Z,15.52
2022-11-13T09:42:21.401Z,15.51
2022-11-13T09:45:12.372Z,15.50
2022-11-13T09:48:08.293Z,15.53
2022-11-13T09:50:54.236Z,15.55
2022-11-13T09:53:40.638Z,15.55
2022-11-13T09:56:28.455Z,15.54
2022-11-13T09:59:37.556Z,15.57
2022-11-13T10:02:58.299Z,15.57
2022-11-13T10:06:00.171Z,15.58
2022-11-13T10:08:48.269Z,15.67
2022-11-13T10:11:42.003Z,15.65
2022-11-13T10:14:37.000Z,15.66
2022-11-13T10:18:07.229Z,15.68
2022-11-13T10:21:06.789Z,15.72
2022-11-13T10:23:56.977Z,15.74
2022-11-13T10:26:42.210Z,15.78
2022-11-13T10:29:29.691Z,15.75
2022-11-13T10:32:20.381Z,15.77
2022-11-13T10:35:05.718Z,15.80
2022-11-13T10:38:03.362Z,15.87
2022-11-13T10:41:04.063Z,15.85
2022-11-13T10:43:59.740Z,15.94
2022-11-13T10:46:44.949Z,15.86
2022-11-13T10:49:30.511Z,15.90
2022-11-13T10:52:22.004Z,15.96
2022-11-13T10:55:17.874Z,16.00
2022-11-13T10:58:12.313Z,15.98
2022-11-13T11:00:57.953Z,16.02
2022-11-13T11:03:50.479Z,16.00
2022-11-13T11:07:12.825Z,15.94
2022-11-13T11:09:46.719Z,15.92
2022-11-13T11:12:31.692Z,16.00
2022-11-13T11:15:42.147Z,16.04
2022-11-13T11:18:49.189Z,16.02
2022-11-13T11:21:36.637Z,16.03
2022-11-13T11:24:31.739Z,16.05
2022-11-13T11:27:23.061Z,16.12
2022-11-13T11:30:22.119Z,16.08
2022-11-13T11:33:31.951Z,16.09
2022-11-13T11:36:41.780Z,16.15
2022-11-13T11:39:32.658Z,16.15
2022-11-13T11:42:30.446Z,16.17
2022-11-13T11:45:37.192Z,16.13
2022-11-13T11:48:28.507Z,16.12
2022-11-13T11:51:16.777Z,16.20
2022-11-13T11:54:29.090Z,16.23
2022-11-13T11:57:23.670Z,16.25
2022-11-13T12:00:15.439Z,16.25
2022-11-13T12:03:14.458Z,16.28
2022-11-13T12:06:22.615Z,16.41
2022-11-13T12:09:17.429Z,16.46
2022-11-13T12:12:25.601Z,16.61
2022-11-13T12:15:23.799Z,16.72
2022-11-13T12:18:27.168Z,16.78
2022-11-13T12:21:22.361Z,16.82
2022-11-13T12:24:25.750Z,16.91
2022-11-13T12:27:53.337Z,16.88
2022-11-13T12:30:57.386Z,16.87
2022-11-13T12:33:55.649Z,16.86
2022-11-13T12:36:46.101Z,16.91
2022-11-13T12:39:57.427Z,16.89
2022-11-13T12:42:46.133Z,16.92
2022-11-13T12:45:37.351Z,16.95
2022-11-13T12:48:33.066Z,16.93
2022-11-13T12:51:19.052Z,16.97
2022-11-13T12:54:04.639Z,16.96
2022-11-13T12:56:50.283Z,16.99
2022-11-13T12:59:52.850Z,17.00
2022-11-13T13:02:49.847Z,17.02
2022-11-13T13:06:10.531Z,17.08
2022-11-13T13:09:33.370Z,17.09
2022-11-13T13:13:19.497Z,17.15
2022-11-13T13:16:09.104Z,17.17
2022-11-13T13:19:22.819Z,17.18
2022-11-13T13:22:12.530Z,17.27
2022-11-13T13:25:03.534Z,17.23
2022-11-13T13:27:59.991Z,17.26
2022-11-13T13:31:07.745Z,17.29
2022-11-13T13:34:01.815Z,17.34
2022-11-13T13:47:11.560Z,17.43
2022-11-13T13:49:57.408Z,17.47
2022-11-13T13:52:44.295Z,17.50
2022-11-13T13:55:45.268Z,17.53
2022-11-13T13:58:34.356Z,17.54
2022-11-13T14:01:30.148Z,17.54
2022-11-13T14:04:19.952Z,17.54
2022-11-13T14:07:22.853Z,17.56
2022-11-13T14:10:22.206Z,17.50
2022-11-13T14:13:22.274Z,17.54
2022-11-13T14:16:08.143Z,17.48
2022-11-13T14:19:03.959Z,17.45
2022-11-13T14:21:53.019Z,17.50
2022-11-13T14:24:45.019Z,17.45
2022-11-13T14:27:31.191Z,17.53
2022-11-13T14:30:25.444Z,17.49
2022-11-13T14:33:17.727Z,17.57
2022-11-13T14:36:04.151Z,17.50
2022-11-13T14:38:52.190Z,17.51
2022-11-13T14:41:40.100Z,17.56
2022-11-13T14:44:30.961Z,17.51
2022-11-13T14:47:29.385Z,17.56
2022-11-13T14:50:27.363Z,17.64
2022-11-13T14:53:12.838Z,17.67
2022-11-13T14:56:02.088Z,17.72
2022-11-13T14:58:47.895Z,17.74
2022-11-13T15:01:33.410Z,17.76
2022-11-13T15:04:19.009Z,17.79
2022-11-13T15:07:29.683Z,17.78
2022-11-13T15:10:18.970Z,17.76
2022-11-13T15:13:11.795Z,17.81
2022-11-13T15:15:56.979Z,17.89
2022-11-13T15:18:54.856Z,17.96
2022-11-13T15:21:40.935Z,17.98
2022-11-13T15:24:26.634Z,17.97
2022-11-13T15:27:18.559Z,18.03
2022-11-13T15:30:04.132Z,18.03
2022-11-13T15:32:53.981Z,17.98
2022-11-13T15:35:39.657Z,17.94
2022-11-13T15:38:24.830Z,17.97
2022-11-13T15:41:20.520Z,17.96
2022-11-13T15:44:12.592Z,17.90
2022-11-13T15:46:57.828Z,17.94
2022-11-13T15:49:56.610Z,18.01
2022-11-13T15:52:52.375Z,17.98
2022-11-13T15:55:40.964Z,17.99
2022-11-13T15:58:29.297Z,18.01
2022-11-13T16:01:19.417Z,17.96
2022-11-13T16:04:05.997Z,17.99
2022-11-13T16:06:52.738Z,17.95
2022-11-13T16:09:38.041Z,17.96
2022-11-13T16:12:23.328Z,17.93
2022-11-13T16:15:09.755Z,17.91
2022-11-13T16:17:57.514Z,17.90
2022-11-13T16:20:42.822Z,17.88
2022-11-13T16:23:28.159Z,17.90
2022-11-13T16:26:26.889Z,17.85
2022-11-13T16:29:21.970Z,17.84
2022-11-13T16:32:14.518Z,17.81
2022-11-13T16:35:00.047Z,17.82
2022-11-13T16:37:45.768Z,17.81
2022-11-13T16:40:31.332Z,17.77
2022-11-13T16:43:16.958Z,17.72
2022-11-13T16:46:05.298Z,17.73
2022-11-13T16:48:50.688Z,17.69
2022-11-13T16:51:36.687Z,17.68
2022-11-13T16:54:22.197Z,17.76
2022-11-13T16:57:12.207Z,17.68
2022-11-13T16:59:57.412Z,17.63
2022-11-13T17:02:44.336Z,17.60
2022-11-13T17:05:29.610Z,17.58
2022-11-13T17:08:14.941Z,17.60
2022-11-13T17:11:00.182Z,17.55
2022-11-13T17:13:53.506Z,17.52
2022-11-13T17:16:38.893Z,17.50
2022-11-13T17:19:23.945Z,17.50
2022-11-13T17:22:09.618Z,17.48
2022-11-13T17:24:55.589Z,17.48
2022-11-13T17:27:40.691Z,17.49
2022-11-13T17:30:26.229Z,17.51
2022-11-13T17:33:11.314Z,17.48
2022-11-13T17:35:57.695Z,17.47
2022-11-13T17:38:42.719Z,17.49
2022-11-13T17:41:31.210Z,17.47
2022-11-13T17:44:17.755Z,17.46
2022-11-13T17:47:02.738Z,17.46
2022-11-13T17:49:48.228Z,17.46
2022-11-13T17:52:33.584Z,17.48
2022-11-13T17:55:18.515Z,17.45
2022-11-13T17:58:04.319Z,17.48
2022-11-13T18:00:50.485Z,17.50
2022-11-13T18:03:36.073Z,17.47
2022-11-13T18:06:22.308Z,17.47
2022-11-13T18:09:07.813Z,17.52
2022-11-13T18:11:52.749Z,17.59
2022-11-13T18:14:38.087Z,17.58
2022-11-13T18:17:23.370Z,17.52
2022-11-13T18:20:09.878Z,17.51
2022-11-13T18:22:55.712Z,17.53
2022-11-13T18:25:40.766Z,17.50
2022-11-13T18:28:25.889Z,17.53
2022-11-13T18:31:18.063Z,17.49
2022-11-13T18:34:05.764Z,17.48
2022-11-13T18:36:51.442Z,17.50
2022-11-13T18:39:36.665Z,17.46
2022-11-13T18:42:22.047Z,17.47
2022-11-13T18:45:08.414Z,17.46
2022-11-13T18:47:53.645Z,17.48
2022-11-13T18:50:39.316Z,17.44
2022-11-13T18:53:24.830Z,17.45
2022-11-13T18:56:15.240Z,17.45
2022-11-13T18:59:00.640Z,17.41
2022-11-13T19:01:46.038Z,17.44
2022-11-13T19:04:31.697Z,17.47
2022-11-13T19:07:17.148Z,17.42
2022-11-13T19:10:02.451Z,17.44
2022-11-13T19:12:48.620Z,17.54
2022-11-13T19:15:38.957Z,17.48
2022-11-13T19:18:24.217Z,17.41
2022-11-13T19:21:14.094Z,17.45
2022-11-13T19:24:01.254Z,17.44
2022-11-13T19:26:46.582Z,17.44
2022-11-13T19:29:32.315Z,17.42
2022-11-13T19:32:17.689Z,17.41
2022-11-13T19:35:03.273Z,17.43
2022-11-13T19:37:49.632Z,17.42
2022-11-13T19:40:34.968Z,17.38
2022-11-13T19:43:20.199Z,17.41
2022-11-13T19:46:07.976Z,17.43
2022-11-13T19:48:53.258Z,17.41
2022-11-13T19:51:38.320Z,17.43
2022-11-13T19:54:23.808Z,17.43
2022-11-13T19:57:09.200Z,17.40
2022-11-13T19:59:54.584Z,17.41
2022-11-13T20:02:39.593Z,17.40
2022-11-13T20:05:24.911Z,17.42
2022-11-13T20:08:11.718Z,17.43
2022-11-13T20:11:05.295Z,17.43
2022-11-13T20:13:50.273Z,17.42
2022-11-13T20:16:35.350Z,17.43
2022-11-13T20:19:20.716Z,17.43
2022-11-13T20:22:06.214Z,17.43
2022-11-13T20:24:51.220Z,17.42
2022-11-13T20:27:37.448Z,17.41
2022-11-13T20:30:23.100Z,17.40
2022-11-13T20:33:08.425Z,17.40
2022-11-13T20:35:54.775Z,17.40
2022-11-13T20:38:48.860Z,17.39
2022-11-13T20:41:35.634Z,17.40
2022-11-13T20:44:20.619Z,17.40
2022-11-13T20:47:06.006Z,17.40
2022-11-13T20:49:51.326Z,17.39
2022-11-13T20:52:36.611Z,17.38
2022-11-13T20:55:21.880Z,17.43
2022-11-13T20:58:07.326Z,17.37
2022-11-13T21:00:52.330Z,17.42
2022-11-13T21:03:41.355Z,17.43
2022-11-13T21:06:27.095Z,17.44
2022-11-13T21:09:12.373Z,17.42
2022-11-13T21:11:57.461Z,17.46
2022-11-13T21:14:44.152Z,17.43
2022-11-13T21:17:29.520Z,17.39
2022-11-13T21:20:14.971Z,17.43
2022-11-13T21:23:00.153Z,17.43
2022-11-13T21:25:45.532Z,17.39
2022-11-13T21:28:33.691Z,17.36
2022-11-13T21:31:20.856Z,17.30
2022-11-13T21:34:06.127Z,17.23
2022-11-13T21:36:51.339Z,17.19
2022-11-13T21:39:39.916Z,17.12
2022-11-13T21:42:25.328Z,17.02
2022-11-13T21:45:10.845Z,16.99
2022-11-13T21:47:56.355Z,17.05
2022-11-13T21:50:41.481Z,17.22
2022-11-13T21:53:26.812Z,17.30
2022-11-13T21:56:15.593Z,17.28
2022-11-13T21:59:01.031Z,17.29
2022-11-13T22:01:46.282Z,17.27
2022-11-13T22:04:31.646Z,17.30
2022-11-13T22:07:17.303Z,17.38
2022-11-13T22:10:07.982Z,17.26
2022-11-13T22:12:53.542Z,17.11
2022-11-13T22:15:39.016Z,17.05
2022-11-13T22:18:24.608Z,16.98
2022-11-13T22:21:12.387Z,16.88
2022-11-13T22:23:59.213Z,16.89
2022-11-13T22:26:45.507Z,16.80
2022-11-13T22:29:30.439Z,16.78
2022-11-13T22:32:15.836Z,16.76
2022-11-13T22:35:01.015Z,16.71
2022-11-13T22:37:46.049Z,16.68
2022-11-13T22:40:33.414Z,16.63
2022-11-13T22:43:18.480Z,16.60
2022-11-13T22:46:09.626Z,16.57
2022-11-13T22:48:56.923Z,16.55
2022-11-13T22:51:42.946Z,16.51
2022-11-13T22:54:28.224Z,16.44
2022-11-13T22:57:13.303Z,16.42
2022-11-13T22:59:58.704Z,16.34
2022-11-13T23:02:47.257Z,16.28
2022-11-13T23:05:35.395Z,16.23
2022-11-13T23:08:20.643Z,16.20
2022-11-13T23:11:07.770Z,16.19
2022-11-13T23:13:55.700Z,16.19
2022-11-13T23:16:40.801Z,16.16
2022-11-13T23:19:26.223Z,16.11
2022-11-13T23:22:11.306Z,16.08
2022-11-13T23:24:56.831Z,16.07
2022-11-13T23:27:42.337Z,16.05
2022-11-13T23:30:27.427Z,16.01
2022-11-13T23:33:14.903Z,16.01
2022-11-13T23:36:00.556Z,15.97
2022-11-13T23:38:45.965Z,15.96
2022-11-13T23:41:31.240Z,15.97
2022-11-13T23:44:16.692Z,15.86
2022-11-13T23:47:03.519Z,15.86
2022-11-13T23:49:48.845Z,15.89
2022-11-13T23:52:34.660Z,15.81
2022-11-13T23:55:21.471Z,15.77
2022-11-13T23:58:11.053Z,15.73
